Saint Paul Island, AK

9:29 PM HAST on March 05, 2015 (GMT -1000)
Saint Paul Island | Change Station
CLOSE
Current Station
Airport
Location: Saint Paul Island,
Elevation: 30 ft
Nearby Weather Stations

Elev 30 ft 57.16 °N, 170.22 °W | Updated 1 hour ago

Light Snow
Light Snow Mist
33 °F
Feels Like 22 °F
N
18
Wind Variable Wind from South
Gusts 28 mph

Today
High -- | Low -- °F
--% Chance of Precip.
Yesterday
High -- | Low -- °F
Precip. -- in
8:03 AM 7:02 PM
Full, 100% visible
Pressure 30.02 in
Visibility 2.0 miles
Clouds Scattered Clouds 600 ft
Overcast 2800 ft
Windchill 22 °F
Dew Point 31 °F
Humidity 92%
Rainfall 0.02 in
Snow Depth Not available.
UV 0 out of 12
Pollen Not available.
Air Quality Not available.
Flu Activity Not available.
SPECI PASN 060614Z AUTO 18016G24KT 2SM -SN BR SCT006 OVC028 01/M01 A3002 RMK AO2 P0000 T00061006 TSNO

More Conditions Fewer Conditions

Pressure 30.02 in
Visibility 2.0 miles
Clouds Scattered Clouds 600 ft
Overcast 2800 ft
Windchill 22 °F
Dew Point 31 °F
Humidity 92%
Rainfall 0.02 in
Snow Depth Not available.
UV 0 out of 12
Pollen Not available.
Air Quality Not available.
Flu Activity Not available.
SPECI PASN 060614Z AUTO 18016G24KT 2SM -SN BR SCT006 OVC028 01/M01 A3002 RMK AO2 P0000 T00061006 TSNO

More Conditions Fewer Conditions

10-Day Weather Forecast

Almanac

Astronomy

Mar. 05, 2015 Rise Set
Actual Time
Civil Twilight
Nautical Twilight
Astronomical Twilight
Moon
Length of Visible Light
Length of Day
Tomorrow will be .
, % of the Moon is Illuminated

Today's Extremes

State Highs State Lows

Community

WunderPhotos

Upload Photos

1,803,199 photos uploaded!

WunderBlogs® & News

Nearby

Air Quality

  Air Quality AQ Index Pollutant
Not available.

Snow Depth

Station Depth Elevation

Earthquake Activity

City Distance Mag. Time & Date
Minimum magnitude displayed is 2.5.

Coastal Water Temperatures

Place Temperature

Nearby Weather Stations